Time;durP1;ratioP1;P1;durP2;ratioP2;P2;SDS_P1;SDS_P2;PMS_P1;PMS_P2;Temp;Humidity;BMP_temperature;BMP_pressure;BME280_temperature;BME280_humidity;BME280_pressure;Samples;Min_cycle;Max_cycle;Signal;HPM_P1;HPM_P2
2020/12/20 00:02:48;;;;;;;564.27;183.20;;;-3.70;99.90;;;;;;4462270;28;662282;-62
2020/12/20 00:05:35;;;;;;;561.23;178.57;;;-3.80;99.90;;;;;;4416782;28;663035;-62
2020/12/20 00:08:23;;;;;;;541.33;175.50;;;-3.90;99.90;;;;;;4463290;28;662478;-62
2020/12/20 00:11:10;;;;;;;574.83;178.23;;;-3.90;99.90;;;;;;4441712;28;662054;-62
2020/12/20 00:13:58;;;;;;;598.53;190.67;;;-3.90;99.90;;;;;;4467531;28;662508;-61
2020/12/20 00:16:45;;;;;;;543.93;175.07;;;-3.80;99.90;;;;;;4443874;28;661721;-62
2020/12/20 00:19:32;;;;;;;560.08;178.93;;;-3.80;99.90;;;;;;4463328;28;662827;-61
2020/12/20 00:22:19;;;;;;;529.33;164.18;;;-3.70;99.90;;;;;;4448270;28;662030;-62
2020/12/20 00:25:06;;;;;;;502.80;152.17;;;-3.70;99.90;;;;;;4466981;28;661688;-61
2020/12/20 00:27:53;;;;;;;503.60;158.43;;;-3.60;99.90;;;;;;4462962;28;662440;-62
2020/12/20 00:30:41;;;;;;;483.58;150.65;;;-3.60;99.90;;;;;;4443613;28;661942;-63
2020/12/20 00:33:28;;;;;;;460.77;138.53;;;-3.50;99.90;;;;;;4464769;28;661571;-62
2020/12/20 00:36:15;;;;;;;429.17;136.07;;;-3.50;99.90;;;;;;4447121;28;661621;-63
2020/12/20 00:39:03;;;;;;;448.20;136.87;;;-3.50;99.90;;;;;;4466306;28;663355;-62
2020/12/20 00:41:50;;;;;;;466.17;142.53;;;-3.40;99.90;;;;;;4428382;28;661734;-61
2020/12/20 00:44:37;;;;;;;480.10;143.33;;;-3.40;99.90;;;;;;4447335;28;661991;-62
2020/12/20 00:47:25;;;;;;;453.30;143.83;;;-3.40;99.90;;;;;;4428226;28;661643;-62
2020/12/20 00:50:12;;;;;;;409.43;121.27;;;-3.30;99.90;;;;;;4447202;28;662398;-61
2020/12/20 00:52:59;;;;;;;250.77;73.17;;;-3.30;99.90;;;;;;4427937;28;661683;-63
2020/12/20 00:55:48;;;;;;;213.17;54.67;;;-3.20;99.90;;;;;;4448275;28;662489;-62
2020/12/20 00:58:35;;;;;;;190.10;50.90;;;-3.00;99.90;;;;;;4437855;28;661091;-62
2020/12/20 01:01:22;;;;;;;212.40;52.77;;;-2.90;99.90;;;;;;4467342;28;661599;-61
2020/12/20 01:04:10;;;;;;;195.10;54.37;;;-2.70;99.90;;;;;;4448236;28;660989;-62
2020/12/20 01:06:57;;;;;;;194.83;52.20;;;-2.60;99.90;;;;;;4466947;28;660527;-62
2020/12/20 01:09:45;;;;;;;225.00;51.97;;;-2.60;99.90;;;;;;4448157;28;660802;-62
2020/12/20 01:12:32;;;;;;;229.63;55.13;;;-2.50;99.90;;;;;;4466915;28;660990;-61
2020/12/20 01:15:19;;;;;;;229.10;59.03;;;-2.40;99.90;;;;;;4447771;28;661049;-63
2020/12/20 01:18:06;;;;;;;219.33;53.97;;;-2.30;99.90;;;;;;4466189;28;662420;-62
2020/12/20 01:20:54;;;;;;;218.90;51.40;;;-2.30;99.90;;;;;;4466760;28;661162;-61
2020/12/20 01:23:41;;;;;;;310.87;54.23;;;-2.20;99.90;;;;;;4442327;28;663034;-62
2020/12/20 01:26:29;;;;;;;239.40;52.30;;;-2.20;99.90;;;;;;4462943;28;660778;-63
2020/12/20 01:29:16;;;;;;;234.13;54.55;;;-2.10;99.90;;;;;;4470691;28;661022;-61
2020/12/20 01:32:03;;;;;;;204.67;49.07;;;-2.10;99.90;;;;;;4466607;28;661489;-61
2020/12/20 01:34:50;;;;;;;215.47;51.27;;;-2.10;99.90;;;;;;4430744;28;660996;-62
2020/12/20 01:37:38;;;;;;;214.57;52.73;;;-2.10;99.90;;;;;;4448662;28;662668;-62
2020/12/20 01:40:25;;;;;;;220.10;51.73;;;-2.10;99.90;;;;;;4428738;28;660935;-62
2020/12/20 01:43:12;;;;;;;199.77;51.90;;;-2.10;99.90;;;;;;4454300;28;661543;-62
2020/12/20 01:45:59;;;;;;;192.87;51.87;;;-2.20;99.90;;;;;;4456054;28;660766;-63
2020/12/20 01:48:47;;;;;;;193.93;51.43;;;-2.20;99.90;;;;;;4465506;28;662316;-62
2020/12/20 01:51:34;;;;;;;163.33;46.27;;;-2.20;99.90;;;;;;4445887;28;661296;-62
2020/12/20 01:54:22;;;;;;;152.70;47.67;;;-2.20;99.90;;;;;;4465047;28;661923;-62
2020/12/20 01:57:12;;;;;;;153.77;46.95;;;-2.20;99.90;;;;;;4446779;28;660768;-63
2020/12/20 01:59:59;;;;;;;150.38;47.60;;;-2.40;99.90;;;;;;4447254;28;660540;-63
2020/12/20 02:02:46;;;;;;;141.57;44.03;;;-2.40;99.90;;;;;;4470065;28;661183;-61
2020/12/20 02:05:33;;;;;;;152.52;47.95;;;-2.50;99.90;;;;;;4465872;28;660936;-61
2020/12/20 02:08:20;;;;;;;137.37;43.83;;;-2.50;99.90;;;;;;4446993;28;661648;-62
2020/12/20 02:11:12;;;;;;;140.73;43.30;;;-2.60;99.90;;;;;;4465292;28;661938;-61
2020/12/20 02:13:59;;;;;;;156.93;47.50;;;-2.70;99.90;;;;;;4429553;28;660924;-62
2020/12/20 02:16:46;;;;;;;138.35;48.72;;;-2.80;99.90;;;;;;4462524;28;660640;-62
2020/12/20 02:19:33;;;;;;;152.07;50.00;;;-2.90;99.90;;;;;;4448052;28;661889;-61
2020/12/20 02:22:21;;;;;;;148.77;47.00;;;-3.00;99.90;;;;;;4429109;28;661318;-62
2020/12/20 02:25:08;;;;;;;146.40;49.78;;;-3.00;99.90;;;;;;4464293;28;663087;-62
2020/12/20 02:27:55;;;;;;;149.53;49.77;;;-3.10;99.90;;;;;;4446102;28;660814;-62
2020/12/20 02:30:42;;;;;;;148.33;48.07;;;-3.10;99.90;;;;;;4464198;28;661738;-61
2020/12/20 02:33:30;;;;;;;134.52;46.25;;;-3.20;99.90;;;;;;4449505;28;662489;-63
2020/12/20 02:36:17;;;;;;;149.57;48.83;;;-3.20;99.90;;;;;;4447098;28;661221;-62
2020/12/20 02:39:07;;;;;;;121.37;40.53;;;-3.30;99.90;;;;;;4427608;28;660878;-62
2020/12/20 02:41:55;;;;;;;123.73;43.20;;;-3.20;99.90;;;;;;4439863;28;661003;-63
2020/12/20 02:44:42;;;;;;;100.93;35.40;;;-3.20;99.90;;;;;;4447005;28;661479;-61
2020/12/20 02:47:29;;;;;;;103.77;33.13;;;-3.20;99.90;;;;;;4427317;28;660806;-63
2020/12/20 02:50:16;;;;;;;104.50;34.37;;;-3.10;99.90;;;;;;4453320;28;662125;-61
2020/12/20 02:53:03;;;;;;;119.40;38.27;;;-3.00;99.90;;;;;;4465342;28;660377;-61
2020/12/20 02:55:51;;;;;;;112.07;36.30;;;-3.10;99.90;;;;;;4445271;28;661558;-61
2020/12/20 02:58:38;;;;;;;112.50;37.23;;;-3.00;99.90;;;;;;4465282;28;660734;-62
2020/12/20 03:01:25;;;;;;;120.87;40.70;;;-3.10;99.90;;;;;;4445949;28;661011;-61
2020/12/20 03:04:12;;;;;;;127.33;41.37;;;-3.10;99.90;;;;;;4461600;28;661429;-61
2020/12/20 03:06:59;;;;;;;125.27;40.70;;;-3.10;99.90;;;;;;4428349;28;660632;-63
2020/12/20 03:09:50;;;;;;;136.10;42.83;;;-3.10;99.90;;;;;;4451234;28;661450;-61
2020/12/20 03:12:38;;;;;;;118.82;41.70;;;-3.10;99.90;;;;;;4424221;28;662534;-61
2020/12/20 03:15:25;;;;;;;132.97;42.73;;;-3.20;99.90;;;;;;4440226;28;660932;-62
2020/12/20 03:18:12;;;;;;;127.70;40.30;;;-3.20;99.90;;;;;;4466239;28;662046;-62
2020/12/20 03:20:59;;;;;;;121.63;39.43;;;-3.20;99.90;;;;;;4448864;28;660700;-63
2020/12/20 03:23:46;;;;;;;145.13;43.40;;;-3.20;99.90;;;;;;4468619;28;660628;-61
2020/12/20 03:26:33;;;;;;;141.57;40.97;;;-3.30;99.90;;;;;;4446850;28;660129;-62
2020/12/20 03:29:21;;;;;;;136.43;41.97;;;-3.20;99.90;;;;;;4427949;28;660566;-62
2020/12/20 03:32:08;;;;;;;132.85;42.22;;;-3.30;99.90;;;;;;4457689;28;660923;-61
2020/12/20 03:34:55;;;;;;;136.27;41.63;;;-3.30;99.90;;;;;;4445443;28;660715;-62
2020/12/20 03:37:47;;;;;;;132.00;42.03;;;-3.30;99.90;;;;;;4468618;28;661434;-61
2020/12/20 03:40:34;;;;;;;137.70;41.45;;;-3.30;99.90;;;;;;4421468;28;660470;-63
2020/12/20 03:43:21;;;;;;;158.53;45.33;;;-3.40;99.90;;;;;;4450657;28;661272;-61
2020/12/20 03:46:09;;;;;;;176.00;47.05;;;-3.30;99.90;;;;;;4446588;28;661525;-62
2020/12/20 03:48:56;;;;;;;197.93;46.50;;;-3.30;99.90;;;;;;4423551;28;662346;-62
2020/12/20 03:51:43;;;;;;;210.37;47.80;;;-3.30;99.90;;;;;;4446899;28;660590;-61
2020/12/20 03:54:30;;;;;;;156.40;42.93;;;-3.30;99.90;;;;;;4426178;28;660697;-62
2020/12/20 03:57:17;;;;;;;176.90;43.67;;;-3.30;99.90;;;;;;4446349;28;662178;-61
2020/12/20 04:00:04;;;;;;;134.17;36.93;;;-3.20;99.90;;;;;;4434156;28;660959;-63
2020/12/20 04:02:52;;;;;;;124.17;34.60;;;-3.10;99.90;;;;;;4460857;28;661826;-61
2020/12/20 04:05:39;;;;;;;116.27;32.90;;;-3.10;99.90;;;;;;4428611;28;660609;-62
2020/12/20 04:08:26;;;;;;;107.97;29.40;;;-3.00;99.90;;;;;;4453877;28;662174;-62
2020/12/20 04:11:13;;;;;;;120.13;33.80;;;-2.90;99.90;;;;;;4455661;28;660806;-61
2020/12/20 04:14:00;;;;;;;117.15;36.95;;;-2.80;99.90;;;;;;4447783;28;661747;-62
2020/12/20 04:16:47;;;;;;;134.53;40.87;;;-2.80;99.90;;;;;;4462269;28;661800;-61
2020/12/20 04:19:35;;;;;;;124.68;38.47;;;-2.70;99.90;;;;;;4429699;28;660733;-63
2020/12/20 04:22:22;;;;;;;121.47;35.37;;;-2.70;99.90;;;;;;4449020;28;661428;-62
2020/12/20 04:25:09;;;;;;;135.30;34.97;;;-2.60;99.90;;;;;;4431232;28;660777;-63
2020/12/20 04:27:56;;;;;;;108.97;34.77;;;-2.50;99.90;;;;;;4448682;28;661735;-61
2020/12/20 04:30:43;;;;;;;138.07;39.90;;;-2.50;99.90;;;;;;4449057;28;660771;-62
2020/12/20 04:33:30;;;;;;;123.10;39.17;;;-2.40;99.90;;;;;;4449026;28;660659;-62
2020/12/20 04:36:18;;;;;;;118.03;37.13;;;-2.40;99.90;;;;;;4457489;28;662277;-62
2020/12/20 04:39:05;;;;;;;126.37;38.67;;;-2.30;99.90;;;;;;4431799;28;660747;-62
2020/12/20 04:41:52;;;;;;;104.67;35.47;;;-2.30;99.90;;;;;;4462508;28;661309;-62
2020/12/20 04:44:39;;;;;;;127.10;40.58;;;-2.20;99.90;;;;;;4454225;28;661379;-63
2020/12/20 04:47:29;;;;;;;117.97;36.67;;;-2.20;99.90;;;;;;4471937;28;661389;-61
2020/12/20 04:50:16;;;;;;;117.13;38.53;;;-2.10;99.90;;;;;;4444619;28;662369;-62
2020/12/20 04:53:03;;;;;;;169.27;39.87;;;-2.10;99.90;;;;;;4465768;28;662220;-61
2020/12/20 04:55:51;;;;;;;118.57;39.77;;;-2.10;99.90;;;;;;4429867;28;660812;-61
2020/12/20 04:58:38;;;;;;;125.30;39.57;;;-2.00;99.90;;;;;;4448648;28;660938;-61
2020/12/20 05:01:25;;;;;;;125.68;40.55;;;-2.00;99.90;;;;;;4434344;28;661785;-62
2020/12/20 05:04:12;;;;;;;118.60;38.83;;;-2.00;99.90;;;;;;4467288;28;661220;-61
2020/12/20 05:06:59;;;;;;;121.47;41.73;;;-1.90;99.90;;;;;;4447845;28;660750;-63
2020/12/20 05:09:47;;;;;;;133.67;42.10;;;-1.90;99.90;;;;;;4465725;28;662183;-61
2020/12/20 05:12:35;;;;;;;131.10;41.23;;;-1.90;99.90;;;;;;4446861;28;660616;-62
2020/12/20 05:15:23;;;;;;;133.63;44.43;;;-1.80;99.90;;;;;;4466376;28;662040;-62
2020/12/20 05:18:11;;;;;;;130.90;40.63;;;-1.70;99.90;;;;;;4444279;28;661099;-61
2020/12/20 05:20:58;;;;;;;145.23;46.03;;;-1.70;99.90;;;;;;4450517;28;660975;-62
2020/12/20 05:23:45;;;;;;;203.00;66.07;;;-1.70;99.90;;;;;;4429808;28;660736;-61
2020/12/20 05:26:33;;;;;;;192.33;59.60;;;-1.70;99.90;;;;;;4450051;28;661588;-62
2020/12/20 05:29:25;;;;;;;187.90;55.70;;;-1.70;99.90;;;;;;4441140;28;660779;-63
2020/12/20 05:32:24;;;;;;;169.03;52.17;;;-1.70;99.90;;;;;;4443275;28;660647;-61
2020/12/20 05:35:12;;;;;;;171.03;52.30;;;-1.70;99.90;;;;;;4418851;28;661934;-61
2020/12/20 05:38:00;;;;;;;176.17;50.30;;;-1.70;99.90;;;;;;4447165;28;660845;-63
2020/12/20 05:40:47;;;;;;;166.63;46.97;;;-1.60;99.90;;;;;;4470901;28;661967;-62
2020/12/20 05:43:35;;;;;;;147.48;43.50;;;-1.60;99.90;;;;;;4452476;28;660588;-63
2020/12/20 05:46:26;;;;;;;122.53;38.47;;;-1.50;99.90;;;;;;4465357;28;662475;-61
2020/12/20 05:49:14;;;;;;;122.63;39.87;;;-1.50;99.90;;;;;;4426597;28;661937;-61
2020/12/20 05:52:06;;;;;;;133.70;43.85;;;-1.60;99.90;;;;;;4425437;28;662270;-61
2020/12/20 05:54:53;;;;;;;128.00;41.67;;;-1.60;99.90;;;;;;4438453;28;662191;-61
2020/12/20 05:57:40;;;;;;;133.43;40.47;;;-1.60;99.90;;;;;;4445304;28;661347;-61
2020/12/20 06:00:28;;;;;;;122.50;38.77;;;-1.60;99.90;;;;;;4465214;28;662038;-62
2020/12/20 06:03:15;;;;;;;117.63;39.00;;;-1.50;99.90;;;;;;4445704;28;662147;-61
2020/12/20 06:06:03;;;;;;;115.90;37.40;;;-1.50;99.90;;;;;;4465090;28;663034;-61
2020/12/20 06:08:50;;;;;;;115.28;38.40;;;-1.50;99.90;;;;;;4427987;28;661529;-61
2020/12/20 06:11:37;;;;;;;122.53;39.47;;;-1.30;99.90;;;;;;4447053;28;662993;-62
2020/12/20 06:14:26;;;;;;;121.25;37.60;;;-1.40;99.90;;;;;;4444330;28;661865;-63
2020/12/20 06:17:17;;;;;;;111.93;36.83;;;-1.30;99.90;;;;;;4464540;28;661774;-62
2020/12/20 06:20:05;;;;;;;129.30;37.30;;;-1.30;99.90;;;;;;4418630;28;662652;-62
2020/12/20 06:22:53;;;;;;;125.23;39.50;;;-1.20;99.90;;;;;;4464818;28;661882;-61
2020/12/20 06:25:43;;;;;;;125.67;40.13;;;-1.10;99.90;;;;;;4445476;28;661871;-61
2020/12/20 06:28:31;;;;;;;139.13;42.37;;;-1.20;99.90;;;;;;4445005;28;661712;-62
2020/12/20 06:31:18;;;;;;;129.93;42.37;;;-1.30;99.90;;;;;;4464113;28;662301;-62
2020/12/20 06:34:07;;;;;;;133.93;40.38;;;-1.30;99.90;;;;;;4444318;28;661803;-62
2020/12/20 06:36:54;;;;;;;129.87;42.03;;;-1.30;99.90;;;;;;4447535;28;662020;-63
2020/12/20 06:39:41;;;;;;;136.65;43.67;;;-1.30;99.90;;;;;;4468618;28;661775;-62
2020/12/20 06:42:39;;;;;;;143.33;46.00;;;-1.20;99.90;;;;;;4463943;28;662366;-62
2020/12/20 06:45:27;;;;;;;145.23;45.27;;;-1.20;99.90;;;;;;4417779;28;662195;-61
2020/12/20 06:48:14;;;;;;;141.60;44.80;;;-1.10;99.90;;;;;;4444360;28;662846;-63
2020/12/20 06:51:02;;;;;;;149.90;47.67;;;-1.20;99.90;;;;;;4468529;28;661754;-62
2020/12/20 06:53:51;;;;;;;160.17;48.03;;;-1.10;99.90;;;;;;4444575;28;661389;-62
2020/12/20 06:56:39;;;;;;;162.03;47.87;;;-1.10;99.90;;;;;;4447350;28;662117;-62
2020/12/20 06:59:41;;;;;;;146.90;45.80;;;-1.00;99.90;;;;;;4449999;28;661470;-62
2020/12/20 07:02:47;;;;;;;155.80;49.13;;;-1.00;99.90;;;;;;4423112;28;661607;-61
2020/12/20 07:05:41;;;;;;;180.90;55.40;;;-1.00;99.90;;;;;;4399647;28;662655;-62
2020/12/20 07:08:30;;;;;;;156.18;46.85;;;-0.90;99.90;;;;;;4420835;28;661786;-61
2020/12/20 07:11:21;;;;;;;153.20;46.93;;;-0.90;99.90;;;;;;4421870;28;663736;-62
2020/12/20 07:14:18;;;;;;;129.07;44.57;;;-0.80;99.90;;;;;;4431572;28;661985;-62
2020/12/20 07:17:24;;;;;;;166.03;51.60;;;-0.60;99.90;;;;;;4444131;28;661628;-63
2020/12/20 07:20:12;;;;;;;186.07;57.37;;;-0.60;99.90;;;;;;4444604;28;661616;-62
2020/12/20 07:22:59;;;;;;;178.57;55.77;;;-0.60;99.90;;;;;;4452249;28;661766;-63
2020/12/20 07:25:47;;;;;;;175.57;54.90;;;-0.60;99.90;;;;;;4450886;28;662677;-62
2020/12/20 07:28:34;;;;;;;184.07;51.63;;;-0.50;99.90;;;;;;4427580;28;661589;-63
2020/12/20 07:31:21;;;;;;;154.20;50.60;;;-0.40;99.90;;;;;;4451019;28;662233;-62
2020/12/20 07:34:08;;;;;;;155.18;50.75;;;-0.40;99.90;;;;;;4450555;28;662141;-63
2020/12/20 07:36:56;;;;;;;163.57;51.93;;;-0.30;99.90;;;;;;4444526;28;662084;-63
2020/12/20 07:39:43;;;;;;;162.70;52.73;;;-0.20;99.90;;;;;;4462489;28;662412;-63
2020/12/20 07:42:30;;;;;;;155.63;51.97;;;-0.20;99.90;;;;;;4425057;28;663548;-63
2020/12/20 07:45:18;;;;;;;218.53;74.70;;;-0.10;99.90;;;;;;4446556;28;662188;-62
2020/12/20 07:48:05;;;;;;;268.20;86.47;;;-0.10;99.90;;;;;;4427777;28;661511;-63
2020/12/20 07:50:52;;;;;;;313.17;101.17;;;-0.10;99.90;;;;;;4450061;28;663143;-63
2020/12/20 07:53:44;;;;;;;285.63;97.63;;;0.00;99.90;;;;;;4437815;28;662782;-64
2020/12/20 07:56:32;;;;;;;274.93;91.23;;;-0.10;99.90;;;;;;4423689;28;662221;-62
2020/12/20 07:59:20;;;;;;;287.27;90.13;;;-0.10;99.90;;;;;;4446705;28;662135;-65
2020/12/20 08:02:07;;;;;;;257.87;80.93;;;-0.10;99.90;;;;;;4463337;28;663223;-63
2020/12/20 08:05:04;;;;;;;228.20;71.47;;;-0.10;99.90;;;;;;4443803;28;661430;-64
2020/12/20 08:07:54;;;;;;;194.55;60.28;;;-0.10;99.90;;;;;;4415209;28;662724;-62
2020/12/20 08:10:41;;;;;;;178.17;52.77;;;-0.10;99.90;;;;;;4423321;28;663718;-62
2020/12/20 08:13:28;;;;;;;192.67;54.70;;;0.00;99.90;;;;;;4446459;28;662491;-63
2020/12/20 08:16:23;;;;;;;236.13;60.03;;;-0.10;99.90;;;;;;4428771;28;660737;-62
2020/12/20 08:19:15;;;;;;;220.05;56.80;;;0.00;99.90;;;;;;4410051;28;663153;-63
2020/12/20 08:22:04;;;;;;;206.45;56.67;;;0.00;99.90;;;;;;4440215;28;662045;-63
2020/12/20 08:24:51;;;;;;;245.13;67.23;;;-0.10;99.90;;;;;;4435518;28;662526;-62
2020/12/20 08:27:40;;;;;;;219.27;62.90;;;0.00;99.90;;;;;;4455654;28;661686;-62
2020/12/20 08:30:27;;;;;;;252.23;69.30;;;0.10;99.90;;;;;;4441133;28;661402;-63
2020/12/20 08:33:15;;;;;;;253.70;67.70;;;0.20;99.90;;;;;;4426370;28;660948;-63
2020/12/20 08:36:02;;;;;;;230.53;66.73;;;0.20;99.90;;;;;;4445208;28;661226;-63
2020/12/20 08:38:49;;;;;;;259.53;73.47;;;0.30;99.90;;;;;;4428173;28;660574;-64
2020/12/20 08:41:36;;;;;;;285.73;80.33;;;0.20;99.90;;;;;;4468291;28;661504;-62
2020/12/20 08:44:26;;;;;;;316.23;85.00;;;0.20;99.90;;;;;;4464907;28;661326;-63
2020/12/20 08:47:14;;;;;;;312.40;87.57;;;0.20;99.90;;;;;;4434450;28;660360;-62
2020/12/20 08:50:02;;;;;;;382.47;95.83;;;0.30;99.90;;;;;;4424624;28;662417;-63
2020/12/20 08:52:49;;;;;;;346.07;96.40;;;0.40;99.90;;;;;;4437192;28;661444;-65
2020/12/20 08:55:36;;;;;;;332.17;99.53;;;0.60;99.90;;;;;;4454763;28;661182;-63
2020/12/20 08:58:24;;;;;;;232.23;43.93;;;0.70;99.90;;;;;;4452835;28;660866;-64
2020/12/20 09:01:11;;;;;;;211.10;42.53;;;0.80;99.90;;;;;;4469804;28;660767;-64
2020/12/20 09:03:58;;;;;;;190.47;36.00;;;1.00;99.90;;;;;;4466424;28;661338;-63
2020/12/20 09:07:03;;;;;;;378.43;43.27;;;1.10;99.90;;;;;;4447517;28;660845;-64
2020/12/20 09:09:50;;;;;;;216.80;33.90;;;1.20;99.90;;;;;;4422377;28;661967;-64
2020/12/20 09:12:38;;;;;;;293.97;37.93;;;1.30;99.90;;;;;;4451435;28;661435;-63
2020/12/20 09:15:31;;;;;;;217.10;30.57;;;1.30;99.90;;;;;;4438366;28;660713;-64
2020/12/20 09:18:18;;;;;;;326.00;35.20;;;1.30;99.90;;;;;;4427385;28;661117;-64
2020/12/20 09:21:05;;;;;;;412.73;42.00;;;1.30;99.90;;;;;;4441887;28;661887;-63
2020/12/20 09:23:58;;;;;;;381.87;41.67;;;1.40;99.90;;;;;;4449088;28;661867;-64
2020/12/20 09:26:55;;;;;;;175.07;31.33;;;1.40;99.90;;;;;;4431676;28;660754;-65
2020/12/20 09:29:51;;;;;;;259.80;34.20;;;1.50;99.90;;;;;;4426842;28;661136;-64
2020/12/20 09:32:38;;;;;;;304.35;37.88;;;1.60;99.90;;;;;;4442442;27;660720;-64
2020/12/20 09:35:25;;;;;;;159.60;38.67;;;1.70;99.90;;;;;;4447159;27;660809;-64
2020/12/20 09:38:13;;;;;;;177.33;35.77;;;1.70;99.90;;;;;;4466741;28;661038;-64
2020/12/20 09:41:02;;;;;;;135.60;33.07;;;1.70;99.90;;;;;;4447410;28;660901;-64
2020/12/20 09:43:50;;;;;;;197.87;33.60;;;1.80;99.90;;;;;;4447730;28;660792;-66
2020/12/20 09:46:38;;;;;;;186.33;36.50;;;1.80;99.90;;;;;;4463844;28;661998;-65
2020/12/20 09:49:26;;;;;;;227.60;34.67;;;1.80;99.90;;;;;;4443219;28;661281;-65
2020/12/20 09:52:14;;;;;;;153.83;28.77;;;1.80;99.90;;;;;;4459246;28;660831;-65
2020/12/20 09:55:01;;;;;;;149.77;33.87;;;1.90;99.90;;;;;;4460872;27;661513;-65
2020/12/20 09:57:49;;;;;;;184.40;37.80;;;2.00;99.90;;;;;;4463964;28;661032;-64
2020/12/20 10:00:36;;;;;;;157.43;33.97;;;1.90;99.90;;;;;;4431870;28;662841;-64
2020/12/20 10:03:24;;;;;;;119.73;33.17;;;1.90;99.90;;;;;;4453024;28;661706;-64
2020/12/20 10:06:12;;;;;;;143.23;31.50;;;1.90;99.90;;;;;;4437807;28;662425;-64
2020/12/20 10:09:00;;;;;;;198.73;53.97;;;2.10;99.90;;;;;;4452124;28;660931;-66
2020/12/20 10:11:47;;;;;;;166.87;43.33;;;2.00;99.90;;;;;;4462469;28;660536;-65
2020/12/20 10:14:35;;;;;;;135.43;30.47;;;1.90;99.90;;;;;;4428876;28;660847;-66
2020/12/20 10:17:22;;;;;;;127.00;30.70;;;2.00;99.90;;;;;;4459084;28;661679;-64
2020/12/20 10:20:09;;;;;;;115.77;27.30;;;2.00;99.90;;;;;;4446010;28;660815;-65
2020/12/20 10:22:56;;;;;;;81.07;25.47;;;2.30;99.90;;;;;;4465336;28;662217;-64
2020/12/20 10:25:43;;;;;;;85.70;27.92;;;2.20;99.90;;;;;;4463051;28;659737;-63
2020/12/20 10:28:30;;;;;;;117.32;33.30;;;2.20;99.90;;;;;;4444739;28;659731;-63
2020/12/20 10:31:19;;;;;;;122.53;32.13;;;2.10;99.90;;;;;;4449490;28;662441;-63
2020/12/20 10:34:06;;;;;;;100.57;29.93;;;2.10;99.90;;;;;;4438028;28;662775;-64
2020/12/20 10:36:53;;;;;;;98.10;29.40;;;2.10;99.90;;;;;;4463196;28;661242;-64
2020/12/20 10:39:41;;;;;;;112.70;30.27;;;2.10;99.90;;;;;;4445682;28;660145;-64
2020/12/20 10:42:28;;;;;;;153.80;32.57;;;2.10;99.90;;;;;;4464918;28;660995;-64
2020/12/20 10:45:15;;;;;;;199.77;34.93;;;2.20;99.90;;;;;;4446147;28;660984;-63
2020/12/20 10:48:03;;;;;;;219.80;35.33;;;2.40;99.90;;;;;;4465298;28;661447;-64
2020/12/20 10:50:50;;;;;;;298.53;35.47;;;2.60;99.90;;;;;;4428154;28;660735;-63
2020/12/20 10:53:38;;;;;;;206.83;41.47;;;2.70;99.90;;;;;;4449141;28;661726;-63
2020/12/20 10:56:25;;;;;;;254.60;41.27;;;2.70;99.90;;;;;;4428012;28;660689;-65
2020/12/20 10:59:12;;;;;;;238.37;39.10;;;2.40;99.90;;;;;;4447873;28;661279;-63
2020/12/20 11:01:59;;;;;;;311.97;38.20;;;2.50;99.90;;;;;;4441287;28;660651;-64
2020/12/20 11:04:47;;;;;;;204.38;31.35;;;2.60;99.90;;;;;;4451376;28;661333;-64
2020/12/20 11:07:34;;;;;;;207.53;32.07;;;2.60;99.90;;;;;;4426965;28;660774;-64
2020/12/20 11:10:21;;;;;;;286.93;32.53;;;2.50;99.90;;;;;;4453278;28;661486;-64
2020/12/20 11:13:08;;;;;;;198.03;30.43;;;2.50;99.90;;;;;;4448021;28;661061;-64
2020/12/20 11:15:57;;;;;;;137.87;31.30;;;2.60;99.90;;;;;;4426849;28;660952;-64
2020/12/20 11:18:45;;;;;;;189.55;35.70;;;2.50;99.90;;;;;;4432244;28;660764;-65
2020/12/20 11:21:34;;;;;;;310.93;46.13;;;2.50;99.90;;;;;;4448458;28;661151;-64
2020/12/20 11:24:21;;;;;;;188.70;33.60;;;2.50;99.90;;;;;;4425416;28;661905;-64
2020/12/20 11:27:08;;;;;;;174.23;33.87;;;2.60;99.90;;;;;;4446349;28;660697;-64
2020/12/20 11:29:55;;;;;;;177.60;30.77;;;2.50;99.90;;;;;;4433592;28;660598;-64
2020/12/20 11:32:41;;;;;;;204.03;26.97;;;2.40;99.90;;;;;;4464664;27;662619;-63
2020/12/20 11:35:29;;;;;;;140.47;27.67;;;2.50;99.90;;;;;;4443063;28;660641;-65
2020/12/20 11:38:17;;;;;;;155.07;26.47;;;2.30;99.90;;;;;;4445649;28;662097;-63
2020/12/20 11:41:04;;;;;;;145.80;27.52;;;2.30;99.90;;;;;;4428035;28;661021;-64
2020/12/20 11:43:52;;;;;;;166.00;26.93;;;2.20;99.90;;;;;;4446874;28;662453;-63
2020/12/20 11:46:40;;;;;;;157.07;26.17;;;2.10;99.90;;;;;;4447686;28;660707;-63
2020/12/20 11:49:26;;;;;;;195.03;27.57;;;2.10;99.90;;;;;;4445969;28;661588;-63
2020/12/20 11:52:14;;;;;;;164.27;26.00;;;2.10;99.90;;;;;;4445128;28;660642;-64
2020/12/20 11:55:02;;;;;;;138.07;27.13;;;2.20;99.90;;;;;;4450354;28;660535;-64
2020/12/20 11:57:49;;;;;;;133.73;38.67;;;2.00;99.90;;;;;;4438591;28;660904;-64
2020/12/20 12:00:36;;;;;;;196.50;46.55;;;2.00;99.90;;;;;;4455346;28;660802;-62
2020/12/20 12:03:23;;;;;;;199.00;41.75;;;1.90;99.90;;;;;;4444794;28;661639;-62
2020/12/20 12:06:10;;;;;;;205.13;38.20;;;1.80;99.90;;;;;;4440111;28;660747;-63
2020/12/20 12:08:57;;;;;;;208.60;34.63;;;1.80;99.90;;;;;;4462798;28;661912;-62
2020/12/20 12:11:45;;;;;;;180.13;33.23;;;1.80;99.90;;;;;;4446848;28;661216;-64
2020/12/20 12:14:32;;;;;;;222.67;31.63;;;1.80;99.90;;;;;;4465770;28;660624;-62
2020/12/20 12:17:19;;;;;;;243.07;31.20;;;1.70;99.90;;;;;;4444007;28;660702;-64
2020/12/20 12:20:06;;;;;;;219.63;30.43;;;1.70;99.90;;;;;;4449087;28;662767;-62
2020/12/20 12:22:53;;;;;;;211.83;31.43;;;1.90;99.90;;;;;;4446513;28;661513;-62
2020/12/20 12:25:40;;;;;;;179.40;25.20;;;1.80;99.90;;;;;;4423131;28;660939;-63
2020/12/20 12:28:29;;;;;;;238.40;27.80;;;1.80;99.90;;;;;;4447037;28;661943;-62
2020/12/20 12:31:17;;;;;;;192.23;25.57;;;1.70;99.90;;;;;;4431741;28;662688;-62
2020/12/20 12:34:04;;;;;;;173.60;24.43;;;1.90;99.90;;;;;;4433079;28;661219;-64
2020/12/20 12:36:51;;;;;;;212.00;27.40;;;1.90;99.90;;;;;;4454435;28;660621;-62
2020/12/20 12:39:38;;;;;;;202.13;30.53;;;1.80;99.90;;;;;;4449597;28;661102;-62
2020/12/20 12:42:25;;;;;;;321.20;36.30;;;1.60;99.90;;;;;;4430720;28;660797;-63
2020/12/20 12:45:14;;;;;;;331.60;34.40;;;1.40;99.90;;;;;;4449767;28;661467;-62
2020/12/20 12:48:01;;;;;;;228.40;33.53;;;1.20;99.90;;;;;;4436415;28;661853;-62
2020/12/20 12:50:48;;;;;;;228.90;35.70;;;1.10;99.90;;;;;;4467561;28;661464;-62
2020/12/20 12:53:35;;;;;;;275.07;36.90;;;1.10;99.90;;;;;;4448416;28;660635;-62
2020/12/20 12:56:22;;;;;;;229.13;37.67;;;1.10;99.90;;;;;;4460773;28;660812;-62
2020/12/20 12:59:09;;;;;;;185.67;33.83;;;1.00;99.90;;;;;;4429413;28;660637;-63
2020/12/20 13:01:57;;;;;;;188.50;30.80;;;1.00;99.90;;;;;;4454293;28;661987;-62
2020/12/20 13:04:44;;;;;;;222.93;34.00;;;1.00;99.90;;;;;;4434789;28;660822;-63
2020/12/20 13:07:31;;;;;;;315.00;40.97;;;1.00;99.90;;;;;;4453733;28;661547;-61
2020/12/20 13:10:18;;;;;;;287.63;36.70;;;1.00;99.90;;;;;;4449800;28;661133;-63
2020/12/20 13:13:05;;;;;;;219.57;33.30;;;1.00;99.90;;;;;;4445651;28;660669;-61
2020/12/20 13:15:52;;;;;;;68.43;18.60;;;1.20;99.90;;;;;;4466563;28;662270;-62
2020/12/20 13:18:40;;;;;;;177.40;26.20;;;1.20;99.90;;;;;;4439217;28;659431;-62
2020/12/20 13:21:27;;;;;;;122.45;24.30;;;1.20;99.90;;;;;;4451058;28;662351;-61
2020/12/20 13:24:14;;;;;;;81.97;20.70;;;1.10;99.90;;;;;;4430884;28;660605;-62
2020/12/20 13:27:01;;;;;;;108.18;19.13;;;1.20;99.90;;;;;;4456055;28;660542;-62
2020/12/20 13:29:48;;;;;;;124.88;23.13;;;1.20;99.90;;;;;;4458666;28;661831;-61
2020/12/20 13:32:35;;;;;;;151.82;24.80;;;1.10;99.90;;;;;;4444600;28;661379;-62
2020/12/20 13:35:23;;;;;;;152.65;23.30;;;0.90;99.90;;;;;;4457844;28;662141;-61
2020/12/20 13:38:10;;;;;;;211.83;29.03;;;0.90;99.90;;;;;;4427919;28;661209;-62
2020/12/20 13:40:57;;;;;;;131.63;25.92;;;0.80;99.90;;;;;;4454811;28;662920;-61
2020/12/20 13:43:44;;;;;;;159.98;28.63;;;0.60;99.90;;;;;;4433050;28;660794;-63
2020/12/20 13:46:31;;;;;;;255.98;33.80;;;0.60;99.90;;;;;;4456753;28;660938;-61
2020/12/20 13:49:18;;;;;;;246.03;35.90;;;0.50;99.90;;;;;;4456668;28;660801;-61
2020/12/20 13:52:06;;;;;;;241.52;34.42;;;0.50;99.90;;;;;;4436733;28;660460;-61
2020/12/20 13:54:53;;;;;;;190.32;31.15;;;0.40;99.90;;;;;;4451021;28;662112;-61